Boonville, California
Current Conditions -  °F | °C
As of 12:56 PM on Sunday 23 Nov 2014 (Local Time) from KUKI Reporting Station
Clear Clear  
Wind Chill: 57°   Ceiling: Unl
Heat Index: 57°   Visibility: 10mi
Dew Point: 39°   Wind: 3mph
Humidity: 51%   Direction: 340°NNW
Pressure: 30.31"   Gusts: NA
Location:  39.01°N, 123.37°W
Report Text: KUKI 232056Z AUTO 34003KT 10SM CLR 14/04 A3031 RMK AO2 SLP262 T01390039 58020
Loading
Personal Weather Stations






























Interactive Weather Map New forecast layout! Learn more

10-Day Weather Forecast

Advertisements
Track Severe Weather on mobile